createdAt,value
2022-10-08T00:01:28.788Z,11.30
2022-10-08T00:03:57.461Z,11.30
2022-10-08T00:06:26.878Z,11.30
2022-10-08T00:08:56.375Z,11.30
2022-10-08T00:11:27.481Z,11.30
2022-10-08T00:13:57.301Z,11.30
2022-10-08T00:16:27.625Z,11.30
2022-10-08T00:18:58.583Z,11.40
2022-10-08T00:21:29.969Z,11.40
2022-10-08T00:23:59.293Z,11.40
2022-10-08T00:26:29.250Z,11.40
2022-10-08T00:29:01.545Z,11.50
2022-10-08T00:31:32.375Z,11.40
2022-10-08T00:34:03.922Z,11.40
2022-10-08T00:36:33.565Z,11.40
2022-10-08T00:39:02.992Z,11.40
2022-10-08T00:41:33.937Z,11.40
2022-10-08T00:44:04.207Z,11.40
2022-10-08T00:46:36.725Z,11.40
2022-10-08T00:49:11.444Z,11.40
2022-10-08T00:51:42.894Z,11.40
2022-10-08T00:54:12.893Z,11.40
2022-10-08T00:56:41.749Z,11.40
2022-10-08T00:59:13.934Z,11.50
2022-10-08T01:01:43.885Z,11.50
2022-10-08T01:04:13.556Z,11.50
2022-10-08T01:06:48.336Z,11.50
2022-10-08T01:09:20.595Z,11.50
2022-10-08T01:11:54.430Z,11.60
2022-10-08T01:14:34.605Z,11.50
2022-10-08T01:17:11.219Z,11.50
2022-10-08T01:20:04.983Z,11.50
2022-10-08T01:22:48.464Z,11.50
2022-10-08T01:25:35.930Z,11.50
2022-10-08T01:28:11.489Z,11.50
2022-10-08T01:30:46.714Z,11.50
2022-10-08T01:33:20.328Z,11.50
2022-10-08T01:35:53.986Z,11.50
2022-10-08T01:38:25.131Z,11.50
2022-10-08T01:40:58.986Z,11.50
2022-10-08T01:43:33.736Z,11.50
2022-10-08T01:46:06.016Z,11.50
2022-10-08T01:48:36.079Z,11.50
2022-10-08T01:51:08.615Z,11.50
2022-10-08T01:53:40.853Z,11.60
2022-10-08T01:56:12.293Z,11.60
2022-10-08T01:58:49.911Z,11.60
2022-10-08T02:01:23.501Z,11.60
2022-10-08T02:04:10.373Z,11.60
2022-10-08T02:06:44.067Z,11.60
2022-10-08T02:09:12.594Z,11.60
2022-10-08T02:11:40.502Z,11.60
2022-10-08T02:14:09.810Z,11.60
2022-10-08T02:16:45.513Z,11.60
2022-10-08T02:19:21.490Z,11.60
2022-10-08T02:21:52.644Z,11.60
2022-10-08T02:24:29.024Z,11.70
2022-10-08T02:26:59.937Z,11.70
2022-10-08T02:29:34.874Z,11.70
2022-10-08T02:32:10.823Z,11.70
2022-10-08T02:34:44.236Z,11.70
2022-10-08T02:37:29.325Z,11.70
2022-10-08T02:40:02.115Z,11.70
2022-10-08T02:42:33.261Z,11.70
2022-10-08T02:45:08.356Z,11.70
2022-10-08T02:47:39.238Z,11.70
2022-10-08T02:50:12.786Z,11.70
2022-10-08T02:52:44.412Z,11.70
2022-10-08T02:55:24.786Z,11.70
2022-10-08T02:57:58.714Z,11.80
2022-10-08T03:00:35.219Z,11.80
2022-10-08T03:03:10.342Z,11.80
2022-10-08T03:05:40.419Z,11.80
2022-10-08T03:08:11.776Z,11.80
2022-10-08T03:10:42.560Z,11.80
2022-10-08T03:13:11.883Z,11.80
2022-10-08T03:15:42.967Z,11.80
2022-10-08T03:18:13.224Z,11.70
2022-10-08T03:20:44.884Z,11.70
2022-10-08T03:23:16.776Z,11.70
2022-10-08T03:25:45.081Z,11.80
2022-10-08T03:28:13.219Z,11.70
2022-10-08T03:30:42.734Z,11.70
2022-10-08T03:33:10.795Z,11.70
2022-10-08T03:35:44.563Z,11.80
2022-10-08T03:38:12.597Z,11.70
2022-10-08T03:40:40.500Z,11.80
2022-10-08T03:43:08.522Z,11.70
2022-10-08T03:45:36.538Z,11.70
2022-10-08T03:48:06.008Z,11.70
2022-10-08T03:50:33.955Z,11.70
2022-10-08T03:53:01.986Z,11.70
2022-10-08T03:55:30.093Z,11.70
2022-10-08T03:57:57.987Z,11.60
2022-10-08T04:00:25.901Z,11.60
2022-10-08T04:02:53.967Z,11.60
2022-10-08T04:05:23.380Z,11.60
2022-10-08T04:07:51.277Z,11.60
2022-10-08T04:10:19.210Z,11.60
2022-10-08T04:12:47.557Z,11.60
2022-10-08T04:15:15.735Z,11.60
2022-10-08T04:17:43.770Z,11.60
2022-10-08T04:20:11.706Z,11.50
2022-10-08T04:22:41.053Z,11.50
2022-10-08T04:25:09.252Z,11.50
2022-10-08T04:27:37.206Z,11.50
2022-10-08T04:30:06.382Z,11.50
2022-10-08T04:32:34.382Z,11.40
2022-10-08T04:35:02.466Z,11.40
2022-10-08T04:37:30.600Z,11.40
2022-10-08T04:39:59.883Z,11.40
2022-10-08T04:42:29.378Z,11.30
2022-10-08T04:44:57.275Z,11.30
2022-10-08T04:47:25.258Z,11.30
2022-10-08T04:49:53.202Z,11.30
2022-10-08T04:52:45.314Z,11.30
2022-10-08T04:55:14.970Z,11.30
2022-10-08T04:57:42.960Z,11.30
2022-10-08T05:00:18.471Z,11.30
2022-10-08T05:02:47.507Z,11.30
2022-10-08T05:05:16.317Z,11.30
2022-10-08T05:07:44.819Z,11.30
2022-10-08T05:10:14.038Z,11.30
2022-10-08T05:12:42.026Z,11.30
2022-10-08T05:15:11.338Z,11.30
2022-10-08T05:17:39.410Z,11.30
2022-10-08T05:20:07.988Z,11.30
2022-10-08T05:22:39.176Z,11.30
2022-10-08T05:25:11.188Z,11.30
2022-10-08T05:27:41.511Z,11.30
2022-10-08T05:30:10.464Z,11.40
2022-10-08T05:32:38.383Z,11.40
2022-10-08T05:35:07.006Z,11.40
2022-10-08T05:37:34.992Z,11.40
2022-10-08T05:40:03.148Z,11.40
2022-10-08T05:42:31.113Z,11.40
2022-10-08T05:45:00.592Z,11.40
2022-10-08T05:47:29.787Z,11.50
2022-10-08T05:49:57.730Z,11.50
2022-10-08T05:52:27.057Z,11.50
2022-10-08T05:54:55.068Z,11.50
2022-10-08T05:57:23.098Z,11.50
2022-10-08T05:59:50.995Z,11.60
2022-10-08T06:02:20.477Z,11.60
2022-10-08T06:04:49.865Z,11.60
2022-10-08T06:07:18.092Z,11.60
2022-10-08T06:09:46.105Z,11.70
2022-10-08T06:12:14.106Z,11.70
2022-10-08T06:14:42.041Z,11.70
2022-10-08T06:17:10.068Z,11.80
2022-10-08T06:19:39.601Z,11.80
2022-10-08T06:22:07.564Z,11.80
2022-10-08T06:24:35.590Z,11.80
2022-10-08T06:27:03.712Z,11.90
2022-10-08T06:29:31.681Z,11.90
2022-10-08T06:31:59.704Z,11.90
2022-10-08T06:34:27.695Z,12.00
2022-10-08T06:36:56.938Z,12.00
2022-10-08T06:39:24.896Z,12.00
2022-10-08T06:41:52.848Z,12.10
2022-10-08T06:44:21.804Z,12.10
2022-10-08T06:46:49.956Z,12.20
2022-10-08T06:49:18.306Z,12.20
2022-10-08T06:51:46.333Z,12.20
2022-10-08T06:54:16.223Z,12.30
2022-10-08T06:56:44.284Z,12.30
2022-10-08T06:59:12.361Z,12.30
2022-10-08T07:01:40.452Z,12.40
2022-10-08T07:04:08.514Z,12.40
2022-10-08T07:06:36.894Z,12.50
2022-10-08T07:09:06.748Z,12.50
2022-10-08T07:11:37.536Z,12.50
2022-10-08T07:14:05.630Z,12.60
2022-10-08T07:16:33.735Z,12.60
2022-10-08T07:19:01.763Z,12.70
2022-10-08T07:21:30.155Z,12.60
2022-10-08T07:24:00.588Z,12.70
2022-10-08T07:26:30.442Z,12.70
2022-10-08T07:29:01.452Z,12.80
2022-10-08T07:31:31.678Z,12.80
2022-10-08T07:34:00.953Z,12.90
2022-10-08T07:36:30.165Z,12.90
2022-10-08T07:38:59.911Z,13.00
2022-10-08T07:41:28.960Z,13.10
2022-10-08T07:43:59.913Z,13.10
2022-10-08T07:46:28.458Z,13.20
2022-10-08T07:48:59.045Z,13.20
2022-10-08T07:51:28.421Z,13.20
2022-10-08T07:54:01.539Z,13.20
2022-10-08T07:56:31.396Z,13.30
2022-10-08T07:59:01.667Z,13.30
2022-10-08T08:01:30.655Z,13.40
2022-10-08T08:04:00.913Z,13.50
2022-10-08T08:06:29.795Z,13.50
2022-10-08T08:08:58.220Z,13.50
2022-10-08T08:11:26.296Z,13.60
2022-10-08T08:13:54.627Z,13.60
2022-10-08T08:16:26.276Z,13.80
2022-10-08T08:18:56.398Z,13.90
2022-10-08T08:21:26.468Z,13.90
2022-10-08T08:23:56.405Z,14.00
2022-10-08T08:26:26.829Z,14.00
2022-10-08T08:28:56.480Z,14.00
2022-10-08T08:31:28.690Z,14.00
2022-10-08T08:33:58.647Z,14.00
2022-10-08T08:36:29.020Z,14.10
2022-10-08T08:38:57.749Z,14.10
2022-10-08T08:41:46.485Z,14.30
2022-10-08T08:44:20.770Z,14.30
2022-10-08T08:46:55.624Z,14.40
2022-10-08T08:49:29.634Z,14.50
2022-10-08T08:51:59.337Z,14.70
2022-10-08T08:54:27.620Z,14.80
2022-10-08T08:56:56.553Z,14.90
2022-10-08T08:59:27.834Z,14.90
2022-10-08T09:02:00.576Z,14.90
2022-10-08T09:04:44.294Z,15.00
2022-10-08T09:07:16.113Z,15.00
2022-10-08T09:09:48.049Z,15.10
2022-10-08T09:12:21.134Z,15.10
2022-10-08T09:14:54.399Z,15.20
2022-10-08T09:17:30.992Z,15.30
2022-10-08T09:20:00.454Z,15.50
2022-10-08T09:22:31.115Z,15.60
2022-10-08T09:25:01.424Z,15.80
2022-10-08T09:27:47.816Z,16.00
2022-10-08T09:30:31.268Z,16.10
2022-10-08T09:33:04.009Z,16.10
2022-10-08T09:35:35.402Z,16.00
2022-10-08T09:38:06.071Z,16.00
2022-10-08T09:40:34.353Z,15.90
2022-10-08T09:43:18.600Z,15.80
2022-10-08T09:45:48.454Z,15.80
2022-10-08T09:48:26.596Z,15.90
2022-10-08T09:50:58.497Z,15.90
2022-10-08T09:53:35.125Z,16.00
2022-10-08T09:56:05.233Z,16.00
2022-10-08T09:58:35.510Z,16.10
2022-10-08T10:01:07.266Z,15.90
2022-10-08T10:03:40.535Z,16.00
2022-10-08T10:06:08.624Z,16.00
2022-10-08T10:08:51.524Z,15.90
2022-10-08T10:11:25.803Z,15.80
2022-10-08T10:13:55.713Z,15.90
2022-10-08T10:16:27.265Z,16.00
2022-10-08T10:19:05.758Z,16.10
2022-10-08T10:21:39.511Z,16.10
2022-10-08T10:24:24.505Z,16.20
2022-10-08T10:26:57.265Z,16.30
2022-10-08T10:29:32.722Z,16.40
2022-10-08T10:32:04.930Z,16.50
2022-10-08T10:34:38.111Z,16.60
2022-10-08T10:37:11.401Z,16.60
2022-10-08T10:39:45.062Z,16.70
2022-10-08T10:42:19.300Z,16.90
2022-10-08T10:44:54.359Z,17.20
2022-10-08T10:47:28.306Z,17.40
2022-10-08T10:50:02.793Z,17.70
2022-10-08T10:52:46.734Z,18.00
2022-10-08T10:55:28.365Z,18.20
2022-10-08T10:58:23.738Z,18.30
2022-10-08T11:01:02.542Z,18.30
2022-10-08T11:03:42.719Z,18.30
2022-10-08T11:06:33.238Z,18.30
2022-10-08T11:09:07.180Z,18.20
2022-10-08T11:11:41.747Z,18.00
2022-10-08T11:14:29.008Z,17.90
2022-10-08T11:17:09.249Z,17.80
2022-10-08T11:19:45.590Z,17.80
2022-10-08T11:22:22.806Z,17.70
2022-10-08T11:25:11.338Z,17.70
2022-10-08T11:27:50.249Z,17.70
2022-10-08T11:30:21.623Z,17.70
2022-10-08T11:32:53.293Z,17.50
2022-10-08T11:35:28.989Z,17.40
2022-10-08T11:38:07.875Z,17.30
2022-10-08T11:40:40.898Z,17.30
2022-10-08T11:43:14.387Z,17.30
2022-10-08T11:45:44.226Z,17.30
2022-10-08T11:48:33.963Z,17.30
2022-10-08T11:51:37.555Z,17.20
2022-10-08T11:54:26.084Z,17.10
2022-10-08T11:57:12.779Z,17.20
2022-10-08T11:59:42.717Z,17.30
2022-10-08T12:02:25.989Z,17.40
2022-10-08T12:04:56.496Z,17.50
2022-10-08T12:07:33.891Z,17.60
2022-10-08T12:10:25.698Z,17.60
2022-10-08T12:13:02.927Z,17.70
2022-10-08T12:16:08.121Z,17.70
2022-10-08T12:18:45.689Z,17.60
2022-10-08T12:21:53.654Z,17.50
2022-10-08T12:24:51.366Z,17.40
2022-10-08T12:27:29.507Z,17.20
2022-10-08T12:29:59.941Z,17.00
2022-10-08T12:32:51.054Z,17.00
2022-10-08T12:35:23.628Z,17.00
2022-10-08T12:38:13.435Z,17.00
2022-10-08T12:40:43.935Z,16.90
2022-10-08T12:43:24.401Z,16.90
2022-10-08T12:45:58.494Z,16.90
2022-10-08T12:48:36.124Z,16.90
2022-10-08T12:51:16.027Z,16.90
2022-10-08T12:53:45.812Z,17.00
2022-10-08T12:56:18.118Z,17.00
2022-10-08T12:58:48.877Z,17.00
2022-10-08T13:01:19.175Z,16.90
2022-10-08T13:03:47.304Z,16.90
2022-10-08T13:06:17.344Z,16.90
2022-10-08T13:08:45.319Z,16.90
2022-10-08T13:11:15.353Z,17.00
2022-10-08T13:13:45.905Z,17.00
2022-10-08T13:16:17.415Z,16.90
2022-10-08T13:18:46.897Z,16.80
2022-10-08T13:21:36.734Z,16.70
2022-10-08T13:24:20.898Z,16.60
2022-10-08T13:26:50.697Z,16.60
2022-10-08T13:29:29.638Z,16.50
2022-10-08T13:32:02.571Z,16.50
2022-10-08T13:34:33.239Z,16.40
2022-10-08T13:37:03.751Z,16.40
2022-10-08T13:39:34.485Z,16.40
2022-10-08T13:42:06.197Z,16.30
2022-10-08T13:44:35.167Z,16.30
2022-10-08T13:47:05.314Z,16.40
2022-10-08T13:49:35.566Z,16.20
2022-10-08T13:52:03.957Z,16.20
2022-10-08T13:54:39.087Z,16.30
2022-10-08T13:57:10.003Z,16.30
2022-10-08T13:59:37.980Z,16.30
2022-10-08T14:02:08.283Z,16.30
2022-10-08T14:04:36.283Z,16.40
2022-10-08T14:07:04.710Z,16.40
2022-10-08T14:09:32.885Z,16.40
2022-10-08T14:12:05.531Z,16.40
2022-10-08T14:14:33.535Z,16.40
2022-10-08T14:17:01.453Z,16.50
2022-10-08T14:19:30.818Z,16.60
2022-10-08T14:21:58.827Z,16.70
2022-10-08T14:24:26.870Z,16.60
2022-10-08T14:26:54.901Z,16.70
2022-10-08T14:29:22.770Z,16.70
2022-10-08T14:31:50.961Z,16.80
2022-10-08T14:34:19.004Z,16.80
2022-10-08T14:36:50.151Z,16.90
2022-10-08T14:39:18.348Z,16.90
2022-10-08T14:41:46.810Z,16.90
2022-10-08T14:44:16.735Z,16.90
2022-10-08T14:46:44.962Z,16.80
2022-10-08T14:49:12.878Z,16.70
2022-10-08T14:51:40.891Z,16.70
2022-10-08T14:54:11.415Z,16.70
2022-10-08T14:56:43.216Z,16.70
2022-10-08T14:59:11.323Z,16.60
2022-10-08T15:01:39.678Z,16.60
2022-10-08T15:04:08.464Z,16.50
2022-10-08T15:06:38.095Z,16.50
2022-10-08T15:09:06.052Z,16.50
2022-10-08T15:11:35.365Z,16.50
2022-10-08T15:14:03.348Z,16.50
2022-10-08T15:16:31.323Z,16.50
2022-10-08T15:18:59.235Z,16.50
2022-10-08T15:21:27.251Z,16.50
2022-10-08T15:23:56.971Z,16.50
2022-10-08T15:26:25.084Z,16.40
2022-10-08T15:28:54.821Z,16.40
2022-10-08T15:31:24.889Z,16.40
2022-10-08T15:33:54.760Z,16.30
2022-10-08T15:36:24.989Z,16.30
2022-10-08T15:38:57.175Z,16.20
2022-10-08T15:41:25.884Z,16.20
2022-10-08T15:43:55.805Z,16.20
2022-10-08T15:46:26.084Z,16.20
2022-10-08T15:48:55.376Z,16.20
2022-10-08T15:51:25.251Z,16.20
2022-10-08T15:53:53.265Z,16.10
2022-10-08T15:56:21.333Z,16.10
2022-10-08T15:58:51.197Z,16.10
2022-10-08T16:01:23.054Z,16.00
2022-10-08T16:03:53.423Z,16.00
2022-10-08T16:06:23.686Z,15.90
2022-10-08T16:08:52.244Z,15.90
2022-10-08T16:11:22.159Z,15.80
2022-10-08T16:13:52.607Z,15.80
2022-10-08T16:16:23.013Z,15.80
2022-10-08T16:18:57.206Z,15.70
2022-10-08T16:21:25.655Z,15.70
2022-10-08T16:23:53.588Z,15.70
2022-10-08T16:26:22.452Z,15.60
2022-10-08T16:28:55.007Z,15.60
2022-10-08T16:31:26.227Z,15.50
2022-10-08T16:33:56.836Z,15.50
2022-10-08T16:36:25.628Z,15.40
2022-10-08T16:38:53.958Z,15.40
2022-10-08T16:41:24.082Z,15.30
2022-10-08T16:43:54.214Z,15.30
2022-10-08T16:46:24.867Z,15.20
2022-10-08T16:48:53.890Z,15.20
2022-10-08T16:51:23.727Z,15.20
2022-10-08T16:53:53.840Z,15.10
2022-10-08T16:56:22.344Z,15.10
2022-10-08T16:58:53.008Z,15.10
2022-10-08T17:01:21.308Z,15.10
2022-10-08T17:03:51.694Z,15.10
2022-10-08T17:06:21.598Z,15.10
2022-10-08T17:08:50.671Z,15.00
2022-10-08T17:11:19.687Z,15.00
2022-10-08T17:13:50.215Z,15.00
2022-10-08T17:16:20.705Z,14.90
2022-10-08T17:18:52.580Z,14.90
2022-10-08T17:22:13.056Z,14.90
2022-10-08T17:24:42.475Z,14.80
2022-10-08T17:27:11.768Z,14.70
2022-10-08T17:29:39.773Z,14.70
2022-10-08T17:32:07.884Z,14.70
2022-10-08T17:34:37.217Z,14.60
2022-10-08T17:37:05.114Z,14.60
2022-10-08T17:39:33.192Z,14.60
2022-10-08T17:42:04.931Z,14.50
2022-10-08T17:44:35.157Z,14.50
2022-10-08T17:47:06.450Z,14.50
2022-10-08T17:49:34.392Z,14.50
2022-10-08T17:52:03.747Z,14.40
2022-10-08T17:54:31.622Z,14.40
2022-10-08T17:56:59.943Z,14.40
2022-10-08T17:59:27.867Z,14.40
2022-10-08T18:01:56.058Z,14.40
2022-10-08T18:04:23.990Z,14.40
2022-10-08T18:06:51.968Z,14.30
2022-10-08T18:09:22.481Z,14.30
2022-10-08T18:11:53.129Z,14.30
2022-10-08T18:14:21.654Z,14.30
2022-10-08T18:16:49.597Z,14.20
2022-10-08T18:19:18.618Z,14.30
2022-10-08T18:21:46.819Z,14.20
2022-10-08T18:24:14.947Z,14.10
2022-10-08T18:26:44.283Z,14.10
2022-10-08T18:29:14.292Z,14.10
2022-10-08T18:31:44.277Z,14.00
2022-10-08T18:34:15.152Z,14.00
2022-10-08T18:36:46.009Z,14.00
2022-10-08T18:39:16.323Z,13.90
2022-10-08T18:41:47.429Z,13.80
2022-10-08T18:44:17.552Z,13.80
2022-10-08T18:46:45.606Z,13.80
2022-10-08T18:49:15.257Z,13.80
2022-10-08T18:51:43.222Z,13.80
2022-10-08T18:54:12.988Z,13.70
2022-10-08T18:56:41.506Z,13.60
2022-10-08T18:59:14.692Z,13.60
2022-10-08T19:01:45.565Z,13.50
2022-10-08T19:04:15.574Z,13.50
2022-10-08T19:06:45.887Z,13.40
2022-10-08T19:09:14.568Z,13.40
2022-10-08T19:11:45.147Z,13.30
2022-10-08T19:14:17.454Z,13.30
2022-10-08T19:16:46.007Z,13.30
2022-10-08T19:19:16.072Z,13.20
2022-10-08T19:21:44.133Z,13.20
2022-10-08T19:24:15.186Z,13.10
2022-10-08T19:26:43.428Z,13.00
2022-10-08T19:29:17.046Z,13.00
2022-10-08T19:31:47.470Z,13.00
2022-10-08T19:34:16.598Z,12.90
2022-10-08T19:36:44.662Z,12.80
2022-10-08T19:39:14.224Z,12.80
2022-10-08T19:41:43.381Z,12.70
2022-10-08T19:44:11.638Z,12.60
2022-10-08T19:46:40.966Z,12.60
2022-10-08T19:49:10.445Z,12.50
2022-10-08T19:51:38.745Z,12.50
2022-10-08T19:54:07.280Z,12.40
2022-10-08T19:56:35.891Z,12.40
2022-10-08T19:59:04.479Z,12.30
2022-10-08T20:01:34.620Z,12.30
2022-10-08T20:04:06.510Z,12.20
2022-10-08T20:06:38.708Z,12.20
2022-10-08T20:09:08.113Z,12.20
2022-10-08T20:11:36.044Z,12.20
2022-10-08T20:14:04.544Z,12.10
2022-10-08T20:16:35.252Z,12.10
2022-10-08T20:19:07.614Z,12.00
2022-10-08T20:21:38.078Z,12.00
2022-10-08T20:24:07.014Z,12.00
2022-10-08T20:26:36.260Z,11.90
2022-10-08T20:29:07.816Z,11.80
2022-10-08T20:31:37.827Z,11.80
2022-10-08T20:34:12.289Z,11.70
2022-10-08T20:36:40.315Z,11.70
2022-10-08T20:39:08.429Z,11.60
2022-10-08T20:41:36.466Z,11.50
2022-10-08T20:44:05.372Z,11.60
2022-10-08T20:46:34.631Z,11.50
2022-10-08T20:49:03.126Z,11.40
2022-10-08T20:51:33.672Z,11.30
2022-10-08T20:54:04.155Z,11.20
2022-10-08T20:56:39.286Z,11.20
2022-10-08T20:59:08.396Z,11.20
2022-10-08T21:01:38.777Z,11.10
2022-10-08T21:04:08.348Z,11.10
2022-10-08T21:06:39.999Z,11.10
2022-10-08T21:09:08.886Z,11.00
2022-10-08T21:11:38.175Z,10.90
2022-10-08T21:14:07.626Z,10.90
2022-10-08T21:16:38.437Z,10.80
2022-10-08T21:19:08.266Z,10.80
2022-10-08T21:21:37.511Z,10.70
2022-10-08T21:24:05.875Z,10.70
2022-10-08T21:26:35.349Z,10.60
2022-10-08T21:29:06.476Z,10.50
2022-10-08T21:31:36.830Z,10.50
2022-10-08T21:34:06.038Z,10.40
2022-10-08T21:36:38.592Z,10.40
2022-10-08T21:39:08.305Z,10.30
2022-10-08T21:41:38.135Z,10.30
2022-10-08T21:44:07.818Z,10.20
2022-10-08T21:46:37.844Z,10.10
2022-10-08T21:49:07.303Z,9.90
2022-10-08T21:51:37.193Z,9.80
2022-10-08T21:54:06.617Z,9.80
2022-10-08T21:56:37.475Z,9.70
2022-10-08T21:59:07.142Z,9.60
2022-10-08T22:01:40.262Z,9.50
2022-10-08T22:04:10.324Z,9.50
2022-10-08T22:06:42.614Z,9.40
2022-10-08T22:09:12.858Z,9.40
2022-10-08T22:11:41.181Z,9.40
2022-10-08T22:14:09.740Z,9.40
2022-10-08T22:16:38.163Z,9.30
2022-10-08T22:19:06.538Z,9.40
2022-10-08T22:21:35.060Z,9.40
2022-10-08T22:24:05.101Z,9.30
2022-10-08T22:26:35.342Z,9.30
2022-10-08T22:29:03.539Z,9.30
2022-10-08T22:31:32.164Z,9.40
2022-10-08T22:34:00.577Z,9.40
2022-10-08T22:36:29.875Z,9.40
2022-10-08T22:38:59.016Z,9.40
2022-10-08T22:41:30.081Z,9.30
2022-10-08T22:43:58.832Z,9.30
2022-10-08T22:46:28.619Z,9.20
2022-10-08T22:48:58.659Z,9.20
2022-10-08T22:51:26.635Z,9.20
2022-10-08T22:53:54.590Z,9.20
2022-10-08T22:56:24.753Z,9.10
2022-10-08T22:58:54.079Z,9.10
2022-10-08T23:01:23.960Z,9.10
2022-10-08T23:04:16.764Z,9.00
2022-10-08T23:06:44.738Z,9.00
2022-10-08T23:09:13.484Z,8.90
2022-10-08T23:11:41.532Z,8.90
2022-10-08T23:14:11.209Z,8.80
2022-10-08T23:16:39.295Z,8.80
2022-10-08T23:19:09.221Z,8.70
2022-10-08T23:21:37.632Z,8.60
2022-10-08T23:24:06.463Z,8.50
2022-10-08T23:26:34.623Z,8.40
2022-10-08T23:29:03.024Z,8.30
2022-10-08T23:31:35.714Z,8.30
2022-10-08T23:34:04.814Z,8.30
2022-10-08T23:36:34.730Z,8.30
2022-10-08T23:39:03.486Z,8.40
2022-10-08T23:41:31.436Z,8.40
2022-10-08T23:43:59.514Z,8.40
2022-10-08T23:46:29.391Z,8.40
2022-10-08T23:48:59.834Z,8.30
2022-10-08T23:51:31.623Z,8.30
2022-10-08T23:54:01.129Z,8.30
2022-10-08T23:56:29.887Z,8.30
2022-10-08T23:58:58.337Z,8.20
